Time;durP1;ratioP1;P1;durP2;ratioP2;P2;SDS_P1;SDS_P2;PMS_P1;PMS_P2;Temp;Humidity;BMP_temperature;BMP_pressure;BME280_temperature;BME280_humidity;BME280_pressure;Samples;Min_cycle;Max_cycle;Signal;HPM_P1;HPM_P2
2023/05/11 00:02:00;;;;;;;11.98;9.02;;;12.30;99.90;;;;;;5115072;28;20108;-62
2023/05/11 00:04:27;;;;;;;12.75;8.40;;;12.40;99.90;;;;;;5115451;27;20051;-62
2023/05/11 00:06:55;;;;;;;10.82;7.68;;;12.30;99.90;;;;;;5115984;28;20043;-62
2023/05/11 00:09:21;;;;;;;12.27;8.38;;;12.40;99.90;;;;;;5115592;28;20055;-61
2023/05/11 00:11:47;;;;;;;10.63;8.68;;;12.40;99.90;;;;;;5116039;28;20063;-62
2023/05/11 00:14:13;;;;;;;10.32;7.75;;;12.40;99.90;;;;;;5115721;28;20043;-61
2023/05/11 00:16:40;;;;;;;10.85;7.78;;;12.40;99.90;;;;;;5115823;28;20048;-63
2023/05/11 00:19:06;;;;;;;11.25;8.15;;;12.40;99.90;;;;;;5115313;28;20116;-59
2023/05/11 00:21:32;;;;;;;11.43;8.18;;;12.40;99.90;;;;;;5114234;28;20061;-62
2023/05/11 00:23:58;;;;;;;12.40;8.52;;;12.30;99.90;;;;;;5115426;28;20096;-60
2023/05/11 00:26:25;;;;;;;13.18;8.50;;;12.30;99.90;;;;;;5115871;28;20058;-62
2023/05/11 00:28:52;;;;;;;13.10;8.52;;;12.40;99.90;;;;;;5115094;28;20062;-63
2023/05/11 00:31:18;;;;;;;10.63;8.00;;;12.40;99.90;;;;;;5097522;28;20052;-61
2023/05/11 00:33:45;;;;;;;12.80;8.65;;;12.40;99.90;;;;;;5115013;28;20251;-62
2023/05/11 00:36:11;;;;;;;11.25;8.27;;;12.40;99.90;;;;;;5115369;28;20055;-62
2023/05/11 00:38:40;;;;;;;11.18;8.15;;;12.40;99.90;;;;;;5115160;28;20100;-61
2023/05/11 00:41:07;;;;;;;12.02;8.73;;;12.50;99.90;;;;;;5115200;28;20043;-63
2023/05/11 00:43:33;;;;;;;11.77;8.60;;;12.40;99.90;;;;;;5115108;28;20043;-62
2023/05/11 00:46:01;;;;;;;12.32;9.15;;;12.50;99.90;;;;;;5115270;28;20364;-59
2023/05/11 00:48:28;;;;;;;11.52;8.55;;;12.30;99.90;;;;;;5115079;28;20047;-62
2023/05/11 00:50:55;;;;;;;11.18;8.45;;;12.40;99.90;;;;;;5114317;28;20052;-62
2023/05/11 00:53:21;;;;;;;11.60;8.50;;;12.40;99.90;;;;;;5114876;28;20043;-63
2023/05/11 00:55:47;;;;;;;13.30;8.57;;;12.40;99.90;;;;;;5115272;28;20059;-61
2023/05/11 00:58:14;;;;;;;11.63;9.30;;;12.40;99.90;;;;;;5114655;28;20398;-62
2023/05/11 01:00:41;;;;;;;13.45;8.38;;;12.40;99.90;;;;;;5114348;28;20036;-62
2023/05/11 01:03:07;;;;;;;12.80;9.05;;;12.40;99.90;;;;;;5113808;28;20587;-61
2023/05/11 01:05:47;;;;;;;12.55;8.20;;;12.50;99.90;;;;;;5114376;28;20349;-63
2023/05/11 01:08:17;;;;;;;13.00;9.18;;;12.40;99.90;;;;;;5114576;28;20394;-61
2023/05/11 01:10:49;;;;;;;13.43;8.43;;;12.40;99.90;;;;;;5113990;28;20097;-61
2023/05/11 01:13:41;;;;;;;13.32;9.75;;;12.50;99.90;;;;;;5114501;28;20411;-61
2023/05/11 01:16:20;;;;;;;13.52;9.32;;;12.30;99.90;;;;;;5114855;28;20051;-63
2023/05/11 01:19:04;;;;;;;15.13;9.43;;;12.30;99.90;;;;;;5114152;28;20549;-60
2023/05/11 01:21:32;;;;;;;14.82;9.57;;;12.30;99.90;;;;;;5113114;28;20464;-62
2023/05/11 01:24:15;;;;;;;15.13;10.02;;;12.30;99.90;;;;;;5114158;28;20047;-61
2023/05/11 01:27:13;;;;;;;13.18;9.43;;;12.20;99.90;;;;;;5114666;28;20113;-63
2023/05/11 01:29:48;;;;;;;13.77;9.13;;;12.30;99.90;;;;;;5114253;28;20051;-63
2023/05/11 01:32:26;;;;;;;14.48;10.40;;;12.30;99.90;;;;;;5114639;28;20134;-62
2023/05/11 01:35:01;;;;;;;12.63;8.90;;;12.30;99.90;;;;;;5113979;28;20105;-63
2023/05/11 01:37:30;;;;;;;11.77;8.73;;;12.40;99.90;;;;;;5114413;28;20051;-63
2023/05/11 01:40:05;;;;;;;14.07;9.55;;;12.40;99.90;;;;;;5112608;28;20108;-63
2023/05/11 01:42:39;;;;;;;13.48;8.93;;;12.40;99.90;;;;;;5114317;28;20047;-62
2023/05/11 01:45:07;;;;;;;12.43;9.25;;;12.40;99.90;;;;;;5113879;28;20047;-62
2023/05/11 01:47:36;;;;;;;12.85;9.00;;;12.30;99.90;;;;;;5114269;28;20396;-62
2023/05/11 01:50:05;;;;;;;12.98;8.98;;;12.30;99.90;;;;;;5114364;28;20055;-62
2023/05/11 01:52:34;;;;;;;13.95;9.77;;;12.40;99.90;;;;;;5114063;28;20386;-63
2023/05/11 01:55:03;;;;;;;14.48;9.02;;;12.30;99.90;;;;;;5113831;28;20044;-63
2023/05/11 01:57:31;;;;;;;13.65;8.77;;;12.30;99.90;;;;;;5113879;28;20495;-61
2023/05/11 01:59:59;;;;;;;12.52;9.00;;;12.30;99.90;;;;;;5113483;28;20043;-63
2023/05/11 02:02:27;;;;;;;13.50;8.95;;;12.40;99.90;;;;;;5114049;28;20455;-63
2023/05/11 02:04:54;;;;;;;12.93;9.27;;;12.50;99.90;;;;;;5113360;28;20108;-62
2023/05/11 02:07:22;;;;;;;15.10;10.60;;;12.30;99.90;;;;;;5113646;28;20422;-63
2023/05/11 02:09:50;;;;;;;13.32;9.60;;;12.40;99.90;;;;;;5112994;28;20108;-63
2023/05/11 02:12:19;;;;;;;15.43;11.02;;;12.40;99.90;;;;;;5095693;28;20136;-61
2023/05/11 02:14:47;;;;;;;14.60;10.63;;;12.30;99.90;;;;;;5113068;28;20474;-63
2023/05/11 02:17:17;;;;;;;16.20;10.43;;;12.40;99.90;;;;;;5113378;28;20043;-61
2023/05/11 02:19:44;;;;;;;16.70;10.77;;;12.40;99.90;;;;;;5112864;28;20043;-63
2023/05/11 02:22:12;;;;;;;16.05;11.35;;;12.40;99.90;;;;;;5113349;28;20370;-62
2023/05/11 02:24:40;;;;;;;16.63;10.68;;;12.20;99.90;;;;;;5113282;28;20047;-61
2023/05/11 02:27:07;;;;;;;16.88;10.77;;;12.20;99.90;;;;;;5113263;28;20052;-61
2023/05/11 02:29:33;;;;;;;14.98;10.38;;;12.30;99.90;;;;;;5112991;28;20050;-62
2023/05/11 02:32:12;;;;;;;15.30;10.55;;;12.30;99.90;;;;;;5113189;28;20047;-63
2023/05/11 02:34:42;;;;;;;16.00;11.15;;;12.40;99.90;;;;;;5112828;28;20043;-61
2023/05/11 02:37:23;;;;;;;16.35;11.27;;;12.30;99.90;;;;;;5112405;28;20380;-61
2023/05/11 02:39:56;;;;;;;15.40;10.18;;;12.40;99.90;;;;;;5112443;28;20491;-63
2023/05/11 02:42:25;;;;;;;15.20;10.75;;;12.30;99.90;;;;;;5113528;28;20058;-62
2023/05/11 02:45:06;;;;;;;14.85;10.75;;;12.20;99.90;;;;;;5112879;28;20383;-63
2023/05/11 02:47:55;;;;;;;16.40;9.82;;;12.40;99.90;;;;;;5113120;28;20044;-63
2023/05/11 02:50:23;;;;;;;16.52;10.63;;;12.20;99.90;;;;;;5112488;28;20054;-62
2023/05/11 02:52:53;;;;;;;18.60;11.93;;;12.40;99.90;;;;;;5113009;28;20380;-62
2023/05/11 02:55:21;;;;;;;14.95;10.35;;;12.40;99.90;;;;;;5112807;28;20039;-61
2023/05/11 02:57:47;;;;;;;16.20;10.35;;;12.30;99.90;;;;;;5112782;28;20073;-61
2023/05/11 03:00:15;;;;;;;14.68;10.23;;;12.20;99.90;;;;;;5112625;28;20054;-62
2023/05/11 03:02:42;;;;;;;16.85;10.15;;;12.30;99.90;;;;;;5113030;28;20044;-63
2023/05/11 03:05:08;;;;;;;14.38;10.30;;;12.30;99.90;;;;;;5112331;28;20459;-61
2023/05/11 03:07:35;;;;;;;16.42;10.40;;;12.40;99.90;;;;;;5112286;28;20047;-62
2023/05/11 03:10:02;;;;;;;17.25;11.50;;;12.30;99.90;;;;;;5112646;28;20105;-62
2023/05/11 03:12:32;;;;;;;17.63;10.98;;;12.40;99.90;;;;;;5113214;28;20063;-63
2023/05/11 03:14:59;;;;;;;16.52;11.02;;;12.40;99.90;;;;;;5113012;28;20051;-61
2023/05/11 03:17:27;;;;;;;18.17;12.05;;;12.30;99.90;;;;;;5112629;28;20471;-63
2023/05/11 03:19:55;;;;;;;17.08;10.75;;;12.20;99.90;;;;;;5112729;28;20066;-63
2023/05/11 03:22:22;;;;;;;17.02;11.68;;;12.30;99.90;;;;;;5113148;28;20058;-62
2023/05/11 03:24:50;;;;;;;17.35;11.00;;;12.20;99.90;;;;;;5112612;28;20047;-61
2023/05/11 03:27:18;;;;;;;16.63;11.20;;;12.30;99.90;;;;;;5111343;28;20085;-62
2023/05/11 03:29:45;;;;;;;17.20;11.80;;;12.30;99.90;;;;;;5112296;28;20051;-61
2023/05/11 03:32:12;;;;;;;18.92;11.80;;;12.30;99.90;;;;;;5113944;28;20039;-63
2023/05/11 03:34:39;;;;;;;17.90;11.45;;;12.40;99.90;;;;;;5116629;28;20048;-64
2023/05/11 03:37:06;;;;;;;17.42;12.10;;;12.30;99.90;;;;;;5117044;28;20096;-63
2023/05/11 03:39:35;;;;;;;16.52;10.85;;;12.30;99.90;;;;;;5115441;28;20047;-62
2023/05/11 03:42:03;;;;;;;17.27;11.30;;;12.40;99.90;;;;;;5116976;28;20055;-61
2023/05/11 03:44:31;;;;;;;18.08;11.43;;;12.40;99.90;;;;;;5116574;28;20452;-62
2023/05/11 03:46:59;;;;;;;16.40;11.15;;;12.30;99.90;;;;;;5116469;28;20071;-63
2023/05/11 03:49:26;;;;;;;18.75;11.93;;;12.40;99.90;;;;;;5115935;28;20043;-62
2023/05/11 03:51:53;;;;;;;15.98;11.13;;;12.30;99.90;;;;;;5116713;28;20047;-63
2023/05/11 03:54:19;;;;;;;16.83;11.55;;;12.30;99.90;;;;;;5115825;28;20116;-63
2023/05/11 03:56:45;;;;;;;17.58;11.15;;;12.40;99.90;;;;;;5116388;28;20055;-62
2023/05/11 03:59:15;;;;;;;16.55;12.15;;;12.40;99.90;;;;;;5115725;28;20421;-61
2023/05/11 04:01:42;;;;;;;19.30;11.77;;;12.20;99.90;;;;;;5116164;28;20424;-62
2023/05/11 04:04:09;;;;;;;18.38;10.98;;;12.30;99.90;;;;;;5116127;28;20043;-60
2023/05/11 04:06:35;;;;;;;16.77;11.93;;;12.30;99.90;;;;;;5115730;28;20647;-61
2023/05/11 04:09:01;;;;;;;17.33;11.60;;;12.20;99.90;;;;;;5115746;28;20114;-63
2023/05/11 04:11:29;;;;;;;16.35;10.40;;;12.20;99.90;;;;;;5116181;28;20058;-62
2023/05/11 04:13:55;;;;;;;17.88;12.00;;;12.10;99.90;;;;;;5115717;28;20059;-62
2023/05/11 04:16:21;;;;;;;17.67;12.70;;;12.10;99.90;;;;;;5116325;28;20378;-62
2023/05/11 04:18:47;;;;;;;16.35;11.27;;;12.30;99.90;;;;;;5114462;28;20055;-62
2023/05/11 04:21:14;;;;;;;15.80;10.90;;;12.20;99.90;;;;;;5115729;28;20043;-62
2023/05/11 04:23:40;;;;;;;15.57;10.45;;;12.20;99.90;;;;;;5115789;28;20036;-62
2023/05/11 04:26:06;;;;;;;18.40;11.55;;;12.30;99.90;;;;;;5115872;28;20044;-61
2023/05/11 04:28:32;;;;;;;15.55;10.77;;;12.10;99.90;;;;;;5114902;28;20055;-63
2023/05/11 04:30:59;;;;;;;19.30;11.63;;;12.20;99.90;;;;;;5097607;28;20055;-62
2023/05/11 04:33:25;;;;;;;15.32;9.65;;;12.10;99.90;;;;;;5114987;28;20510;-62
2023/05/11 04:35:53;;;;;;;16.42;11.00;;;12.20;99.90;;;;;;5115774;28;20047;-62
2023/05/11 04:38:21;;;;;;;15.85;10.50;;;12.20;99.90;;;;;;5115147;28;20057;-61
2023/05/11 04:40:49;;;;;;;17.42;10.07;;;12.20;99.90;;;;;;5115063;28;20055;-61
2023/05/11 04:43:16;;;;;;;16.25;10.07;;;12.20;99.90;;;;;;5114217;28;20608;-63
2023/05/11 04:45:51;;;;;;;16.33;9.88;;;12.20;99.90;;;;;;5114999;28;20058;-61
2023/05/11 04:48:18;;;;;;;15.77;10.85;;;12.30;99.90;;;;;;5096956;28;20070;-61
2023/05/11 04:50:44;;;;;;;17.45;10.77;;;12.20;99.90;;;;;;5115147;28;20039;-63
2023/05/11 04:53:10;;;;;;;17.30;10.38;;;12.10;99.90;;;;;;5096966;28;20055;-63
2023/05/11 04:55:36;;;;;;;15.75;10.70;;;12.20;99.90;;;;;;5113049;28;20101;-62
2023/05/11 04:58:03;;;;;;;17.00;10.75;;;12.30;99.90;;;;;;5096974;28;20050;-64
2023/05/11 05:00:29;;;;;;;14.75;9.80;;;12.20;99.90;;;;;;5113702;28;20043;-61
2023/05/11 05:02:55;;;;;;;15.48;9.98;;;12.40;99.90;;;;;;5114236;28;20540;-61
2023/05/11 05:05:21;;;;;;;15.23;10.55;;;12.40;99.90;;;;;;5116660;27;20062;-61
2023/05/11 05:07:48;;;;;;;14.80;9.82;;;12.30;99.90;;;;;;5122130;27;20040;-61
2023/05/11 05:10:14;;;;;;;17.05;11.68;;;12.40;99.90;;;;;;5118418;27;20039;-63
2023/05/11 05:12:40;;;;;;;17.10;11.00;;;12.30;99.90;;;;;;5124008;27;20433;-61
2023/05/11 05:15:07;;;;;;;17.50;11.23;;;12.30;99.90;;;;;;5121882;27;20488;-60
2023/05/11 05:17:34;;;;;;;15.95;11.07;;;12.20;99.90;;;;;;5124799;27;20405;-62
2023/05/11 05:20:00;;;;;;;15.52;10.55;;;12.20;99.90;;;;;;5094678;28;20097;-62
2023/05/11 05:22:27;;;;;;;14.65;9.45;;;12.10;99.90;;;;;;5114020;28;20044;-61
2023/05/11 05:24:53;;;;;;;12.98;8.63;;;12.00;99.90;;;;;;5113601;28;20054;-62
2023/05/11 05:27:19;;;;;;;16.33;10.23;;;12.00;99.90;;;;;;5114436;28;20047;-61
2023/05/11 05:29:45;;;;;;;16.20;10.00;;;12.00;99.90;;;;;;5114289;28;20767;-61
2023/05/11 05:32:12;;;;;;;13.13;8.27;;;12.10;99.90;;;;;;5114681;28;20047;-61
2023/05/11 05:34:38;;;;;;;14.50;9.57;;;12.00;99.90;;;;;;5114669;28;20332;-60
2023/05/11 05:37:05;;;;;;;13.85;8.95;;;12.10;99.90;;;;;;5096662;28;20047;-62
2023/05/11 05:39:31;;;;;;;14.60;8.10;;;12.10;99.90;;;;;;5095245;28;20048;-61
2023/05/11 05:41:57;;;;;;;10.23;6.53;;;12.20;99.90;;;;;;5114216;28;20077;-61
2023/05/11 05:44:23;;;;;;;11.02;7.35;;;12.20;99.90;;;;;;5114196;28;20047;-60
2023/05/11 05:46:50;;;;;;;12.45;7.45;;;12.20;99.90;;;;;;5114429;28;20043;-60
2023/05/11 05:49:16;;;;;;;11.38;7.55;;;12.20;99.90;;;;;;5113337;28;20059;-61
2023/05/11 05:51:42;;;;;;;12.27;8.00;;;12.20;99.90;;;;;;5113956;28;20660;-61
2023/05/11 05:54:10;;;;;;;11.38;8.05;;;12.30;99.90;;;;;;5113914;28;20063;-60
2023/05/11 05:56:36;;;;;;;13.20;7.93;;;12.20;99.90;;;;;;5112757;28;20051;-61
2023/05/11 05:59:02;;;;;;;9.18;5.88;;;12.30;99.90;;;;;;5113681;28;20168;-61
2023/05/11 06:01:29;;;;;;;10.73;7.07;;;12.30;99.90;;;;;;5113820;28;20337;-63
2023/05/11 06:03:55;;;;;;;9.00;6.10;;;12.10;99.90;;;;;;5112338;28;20275;-63
2023/05/11 06:06:21;;;;;;;10.80;6.55;;;12.10;99.90;;;;;;5113536;28;20048;-61
2023/05/11 06:08:47;;;;;;;8.07;5.47;;;12.20;99.90;;;;;;5113194;28;20044;-62
2023/05/11 06:11:14;;;;;;;8.88;5.57;;;12.20;99.90;;;;;;5114007;28;20044;-62
2023/05/11 06:13:41;;;;;;;8.27;5.82;;;12.10;99.90;;;;;;5113907;28;20039;-63
2023/05/11 06:16:07;;;;;;;8.23;4.82;;;12.20;99.90;;;;;;5112660;28;20055;-61
2023/05/11 06:18:33;;;;;;;7.13;5.25;;;12.20;99.90;;;;;;5113025;28;20047;-62
2023/05/11 06:20:59;;;;;;;8.60;5.50;;;12.30;99.90;;;;;;5112418;28;20056;-60
2023/05/11 06:23:26;;;;;;;8.25;5.13;;;12.30;99.90;;;;;;5112689;28;20123;-63
2023/05/11 06:25:52;;;;;;;9.25;5.68;;;12.20;99.90;;;;;;5109675;28;20462;-62
2023/05/11 06:28:18;;;;;;;9.13;6.15;;;12.30;99.90;;;;;;5112950;28;20356;-61
2023/05/11 06:30:44;;;;;;;10.55;7.10;;;12.20;99.90;;;;;;5094538;28;20047;-62
2023/05/11 06:33:11;;;;;;;11.43;7.13;;;12.20;99.90;;;;;;5113000;28;20047;-61
2023/05/11 06:35:37;;;;;;;10.88;7.00;;;12.10;99.90;;;;;;5112110;28;20059;-62
2023/05/11 06:38:03;;;;;;;10.55;7.18;;;12.20;99.90;;;;;;5113402;28;20043;-62
2023/05/11 06:40:29;;;;;;;12.13;8.00;;;12.20;99.90;;;;;;5111168;28;20077;-62
2023/05/11 06:42:56;;;;;;;11.77;7.03;;;12.00;99.90;;;;;;5112761;28;20104;-62
2023/05/11 06:45:22;;;;;;;11.50;7.50;;;12.10;99.90;;;;;;5112739;28;20044;-62
2023/05/11 06:47:48;;;;;;;10.68;7.00;;;12.20;99.90;;;;;;5113028;28;20047;-62
2023/05/11 06:50:14;;;;;;;10.48;6.13;;;12.10;99.90;;;;;;5113068;28;20044;-63
2023/05/11 06:52:40;;;;;;;9.85;6.32;;;12.20;99.90;;;;;;5094795;28;20464;-63
2023/05/11 06:55:11;;;;;;;10.15;6.25;;;12.00;99.90;;;;;;5112445;28;20055;-59
2023/05/11 06:57:37;;;;;;;8.98;4.93;;;12.00;99.90;;;;;;5112757;28;20108;-62
2023/05/11 07:00:05;;;;;;;9.80;6.28;;;12.10;99.90;;;;;;5112853;28;20382;-63
2023/05/11 07:02:31;;;;;;;10.13;6.00;;;12.00;99.90;;;;;;5112705;28;20059;-63
2023/05/11 07:04:57;;;;;;;9.07;5.45;;;12.00;99.90;;;;;;5112058;28;20052;-63
2023/05/11 07:07:23;;;;;;;8.32;6.03;;;12.10;99.90;;;;;;5112189;28;20048;-61
2023/05/11 07:09:50;;;;;;;9.65;5.57;;;12.10;99.90;;;;;;5112931;28;20479;-63
2023/05/11 07:12:16;;;;;;;9.02;5.75;;;12.00;99.90;;;;;;5094804;28;20116;-62
2023/05/11 07:14:42;;;;;;;8.75;6.13;;;12.00;99.90;;;;;;5112224;28;20387;-62
2023/05/11 07:17:09;;;;;;;8.60;5.00;;;12.20;99.90;;;;;;5112232;28;20044;-63
2023/05/11 07:19:36;;;;;;;8.52;5.10;;;12.20;99.90;;;;;;5112519;28;20527;-62
2023/05/11 07:22:04;;;;;;;9.32;5.20;;;12.10;99.90;;;;;;5112788;28;20084;-62
2023/05/11 07:24:30;;;;;;;8.38;5.10;;;12.00;99.90;;;;;;5112685;28;20085;-63
2023/05/11 07:26:57;;;;;;;6.30;4.43;;;12.20;99.90;;;;;;5112095;28;20054;-64
2023/05/11 07:29:23;;;;;;;7.97;4.05;;;12.30;99.90;;;;;;5112874;28;20054;-62
2023/05/11 07:31:50;;;;;;;6.28;4.20;;;12.30;99.90;;;;;;5112945;28;20085;-63
2023/05/11 07:34:16;;;;;;;6.65;3.75;;;12.30;99.90;;;;;;5112197;28;20060;-62
2023/05/11 07:36:42;;;;;;;5.50;3.15;;;12.30;99.90;;;;;;5112178;28;20044;-61
2023/05/11 07:39:09;;;;;;;5.82;3.05;;;12.30;99.90;;;;;;5112516;28;20059;-62
2023/05/11 07:41:35;;;;;;;4.68;2.90;;;12.30;99.90;;;;;;5112496;28;20052;-63
2023/05/11 07:44:02;;;;;;;4.25;2.95;;;12.50;99.90;;;;;;5112243;28;20426;-61
2023/05/11 07:46:28;;;;;;;4.25;2.50;;;12.50;99.90;;;;;;5112051;28;20040;-61
2023/05/11 07:48:55;;;;;;;4.50;2.33;;;12.60;99.90;;;;;;5112365;28;20047;-61
2023/05/11 07:51:21;;;;;;;3.17;2.03;;;12.80;99.90;;;;;;5112582;28;20093;-62
2023/05/11 07:53:47;;;;;;;4.15;2.38;;;12.90;99.90;;;;;;5112850;28;20109;-62
2023/05/11 07:56:13;;;;;;;5.15;2.70;;;13.00;99.90;;;;;;5113000;28;20044;-62
2023/05/11 07:58:40;;;;;;;4.32;2.83;;;13.00;99.90;;;;;;5113410;28;20131;-61
2023/05/11 08:01:06;;;;;;;5.10;3.05;;;13.00;99.90;;;;;;5095476;28;20051;-62
2023/05/11 08:03:32;;;;;;;5.72;3.53;;;13.10;99.90;;;;;;5112464;28;20043;-61
2023/05/11 08:05:59;;;;;;;6.43;4.10;;;13.30;99.90;;;;;;5112577;28;20074;-62
2023/05/11 08:08:25;;;;;;;6.97;3.70;;;13.30;99.90;;;;;;5113430;28;20100;-62
2023/05/11 08:10:52;;;;;;;6.13;3.65;;;13.40;99.90;;;;;;5112915;28;20048;-61
2023/05/11 08:13:18;;;;;;;6.13;3.60;;;13.50;99.90;;;;;;5113027;28;20146;-63
2023/05/11 08:15:44;;;;;;;6.30;4.20;;;13.60;99.90;;;;;;5112485;28;20434;-61
2023/05/11 08:18:10;;;;;;;6.55;3.88;;;13.80;99.90;;;;;;5114042;28;20080;-62
2023/05/11 08:20:38;;;;;;;5.80;3.60;;;13.90;99.90;;;;;;5116474;28;20090;-61
2023/05/11 08:23:04;;;;;;;4.93;2.80;;;14.00;99.90;;;;;;5116763;28;20447;-62
2023/05/11 08:25:31;;;;;;;4.03;2.22;;;14.30;99.90;;;;;;5115679;28;20044;-64
2023/05/11 08:27:57;;;;;;;4.97;2.45;;;14.30;99.90;;;;;;5116375;28;20052;-62
2023/05/11 08:30:23;;;;;;;4.47;2.90;;;14.30;99.90;;;;;;5098511;28;20052;-62
2023/05/11 08:32:49;;;;;;;3.97;2.85;;;14.30;99.90;;;;;;5116084;28;20510;-62
2023/05/11 08:35:16;;;;;;;4.00;2.20;;;14.30;99.90;;;;;;5115592;28;20120;-63
2023/05/11 08:37:42;;;;;;;2.97;2.03;;;14.20;99.90;;;;;;5115971;28;20609;-62
2023/05/11 08:40:11;;;;;;;3.15;1.95;;;14.20;99.90;;;;;;5116425;28;20047;-62
2023/05/11 08:42:42;;;;;;;2.88;1.63;;;14.30;99.90;;;;;;5115977;28;20058;-62
2023/05/11 08:45:10;;;;;;;2.88;1.45;;;14.50;99.90;;;;;;5115533;28;20467;-62
2023/05/11 08:47:36;;;;;;;2.65;1.58;;;14.40;99.90;;;;;;5116345;28;20108;-63
2023/05/11 08:50:03;;;;;;;3.78;1.85;;;14.30;99.90;;;;;;5115597;28;20406;-62
2023/05/11 08:52:29;;;;;;;2.45;1.45;;;14.50;99.90;;;;;;5115899;28;20464;-63
2023/05/11 08:54:56;;;;;;;3.05;1.52;;;14.60;99.90;;;;;;5115492;28;20124;-63
2023/05/11 08:57:25;;;;;;;2.40;1.42;;;14.60;99.90;;;;;;5116379;28;20128;-61
2023/05/11 08:59:52;;;;;;;2.65;1.65;;;14.50;99.90;;;;;;5116366;28;20048;-61
2023/05/11 09:02:19;;;;;;;3.50;1.70;;;14.70;99.90;;;;;;5115967;28;20044;-61
2023/05/11 09:04:45;;;;;;;2.80;1.63;;;14.90;99.90;;;;;;5115224;28;20074;-62
2023/05/11 09:07:15;;;;;;;3.50;1.95;;;15.10;99.90;;;;;;5115931;28;20047;-61
2023/05/11 09:09:42;;;;;;;2.90;1.73;;;15.40;99.90;;;;;;5115805;28;20040;-60
2023/05/11 09:12:09;;;;;;;3.90;2.28;;;15.70;99.90;;;;;;5098023;28;20060;-61
2023/05/11 09:14:35;;;;;;;3.80;2.25;;;15.80;99.90;;;;;;5115599;28;20070;-61
2023/05/11 09:17:03;;;;;;;3.35;2.10;;;16.00;99.90;;;;;;5115391;28;20056;-62
2023/05/11 09:19:30;;;;;;;3.63;2.08;;;16.00;99.90;;;;;;5115638;28;20052;-61
2023/05/11 09:21:58;;;;;;;4.03;2.67;;;16.10;99.90;;;;;;5115695;28;20047;-63
2023/05/11 09:24:25;;;;;;;4.35;2.63;;;16.20;99.90;;;;;;5115344;28;20043;-62
2023/05/11 09:27:08;;;;;;;3.95;2.60;;;16.10;99.90;;;;;;5115117;28;20043;-62
2023/05/11 09:29:34;;;;;;;5.43;2.95;;;15.90;99.90;;;;;;5114863;28;20044;-62
2023/05/11 09:32:00;;;;;;;4.15;2.42;;;16.00;99.90;;;;;;5115414;28;20112;-62
2023/05/11 09:34:26;;;;;;;4.43;2.95;;;16.00;99.90;;;;;;5114787;28;20349;-63
2023/05/11 09:36:54;;;;;;;3.92;2.60;;;16.10;99.90;;;;;;5114817;28;20051;-62
2023/05/11 09:39:33;;;;;;;4.32;2.97;;;16.20;99.90;;;;;;5115627;28;20077;-61
2023/05/11 09:42:17;;;;;;;4.25;2.63;;;16.30;99.90;;;;;;5115005;28;20105;-63
2023/05/11 09:44:44;;;;;;;4.32;2.50;;;16.40;99.90;;;;;;5114699;28;20097;-63
2023/05/11 09:47:15;;;;;;;4.03;3.00;;;16.40;99.90;;;;;;5115170;28;20117;-62
2023/05/11 09:49:43;;;;;;;4.05;2.72;;;16.50;99.90;;;;;;5114415;28;20524;-61
2023/05/11 09:52:19;;;;;;;4.07;2.63;;;16.70;99.90;;;;;;5115035;28;20108;-61
2023/05/11 09:54:50;;;;;;;4.15;2.67;;;16.70;99.90;;;;;;5096292;28;20051;-61
2023/05/11 09:57:27;;;;;;;4.47;2.75;;;16.90;99.90;;;;;;5114968;28;20055;-64
2023/05/11 09:59:55;;;;;;;4.45;2.92;;;17.00;99.90;;;;;;5115240;28;20081;-61
2023/05/11 10:02:23;;;;;;;4.47;2.53;;;17.10;99.90;;;;;;5096132;28;20131;-61
2023/05/11 10:04:51;;;;;;;5.50;2.30;;;17.00;99.90;;;;;;5113919;28;20044;-61
2023/05/11 10:07:27;;;;;;;3.10;2.42;;;17.10;99.90;;;;;;5114807;28;20075;-61
2023/05/11 10:09:56;;;;;;;4.13;2.33;;;17.30;99.90;;;;;;5114938;28;20085;-61
2023/05/11 10:12:24;;;;;;;3.13;2.15;;;17.30;99.90;;;;;;5115011;28;20100;-61
2023/05/11 10:14:54;;;;;;;3.35;2.40;;;17.50;99.90;;;;;;5114188;28;20062;-61
2023/05/11 10:17:21;;;;;;;3.53;2.47;;;17.70;99.90;;;;;;5114875;28;20052;-61
2023/05/11 10:19:48;;;;;;;3.70;2.45;;;17.70;99.90;;;;;;5114406;28;20051;-61
2023/05/11 10:22:18;;;;;;;3.50;2.53;;;17.80;99.90;;;;;;5114586;28;20050;-59
2023/05/11 10:24:46;;;;;;;3.83;2.38;;;17.90;99.90;;;;;;5094843;28;20067;-60
2023/05/11 10:27:13;;;;;;;2.95;2.08;;;17.90;99.90;;;;;;5114175;28;20063;-61
2023/05/11 10:29:39;;;;;;;3.97;2.40;;;17.90;99.90;;;;;;5114411;28;20043;-61
2023/05/11 10:32:06;;;;;;;3.50;2.50;;;18.00;99.90;;;;;;5114516;28;20441;-61
2023/05/11 10:34:33;;;;;;;3.30;2.33;;;18.10;99.90;;;;;;5113818;28;20479;-63
2023/05/11 10:37:00;;;;;;;3.05;2.40;;;18.10;99.90;;;;;;5114201;28;20059;-61
2023/05/11 10:39:29;;;;;;;3.08;2.20;;;18.00;99.90;;;;;;5114259;28;20505;-62
2023/05/11 10:42:02;;;;;;;3.20;2.10;;;18.00;99.90;;;;;;5113678;28;20379;-62
2023/05/11 10:44:49;;;;;;;2.40;1.80;;;18.10;99.90;;;;;;5114165;28;20101;-62
2023/05/11 10:47:55;;;;;;;2.60;1.83;;;18.10;99.90;;;;;;5114266;28;20112;-62
2023/05/11 10:50:33;;;;;;;2.63;1.73;;;18.00;99.90;;;;;;5094006;28;20143;-61
2023/05/11 10:53:14;;;;;;;2.67;1.60;;;17.90;99.90;;;;;;5094025;28;20063;-62
2023/05/11 10:56:04;;;;;;;2.38;1.77;;;17.90;99.90;;;;;;5112486;28;20051;-61
2023/05/11 10:59:07;;;;;;;2.30;1.63;;;17.90;99.90;;;;;;5113936;28;20092;-62
2023/05/11 11:01:42;;;;;;;2.40;1.55;;;17.90;99.90;;;;;;5114056;28;20052;-61
2023/05/11 11:04:11;;;;;;;2.92;1.80;;;17.80;99.90;;;;;;5111153;28;20120;-62
2023/05/11 11:06:40;;;;;;;3.05;1.80;;;17.90;99.90;;;;;;5095307;28;20414;-63
2023/05/11 11:09:16;;;;;;;3.70;1.60;;;18.00;99.90;;;;;;5113403;28;20460;-61
2023/05/11 11:11:45;;;;;;;2.05;1.50;;;18.00;99.90;;;;;;5113818;28;20051;-61
2023/05/11 11:14:13;;;;;;;2.10;1.60;;;17.90;99.90;;;;;;5113399;28;20048;-61
2023/05/11 11:16:41;;;;;;;2.35;1.52;;;18.00;99.90;;;;;;5094611;28;20047;-62
2023/05/11 11:19:29;;;;;;;2.13;1.35;;;17.80;99.90;;;;;;5111020;28;20444;-63
2023/05/11 11:22:01;;;;;;;2.03;1.40;;;17.80;99.90;;;;;;5111550;28;20456;-64
2023/05/11 11:24:39;;;;;;;2.42;1.50;;;17.90;99.90;;;;;;5111473;28;20499;-64
2023/05/11 11:27:07;;;;;;;1.90;1.50;;;17.90;99.90;;;;;;5111805;28;20051;-62
2023/05/11 11:29:36;;;;;;;2.78;1.40;;;17.90;99.90;;;;;;5093958;28;20124;-61
2023/05/11 11:32:28;;;;;;;2.22;1.35;;;17.90;99.90;;;;;;5111542;28;20043;-62
2023/05/11 11:34:54;;;;;;;2.10;1.60;;;17.90;99.90;;;;;;5091329;28;20048;-61
2023/05/11 11:37:22;;;;;;;2.08;1.60;;;18.00;99.90;;;;;;5113831;28;20371;-63
2023/05/11 11:39:53;;;;;;;2.80;1.90;;;18.10;99.90;;;;;;5095914;28;20074;-61
2023/05/11 11:42:34;;;;;;;2.92;1.90;;;18.20;99.90;;;;;;5096113;28;20048;-60
2023/05/11 11:45:25;;;;;;;2.60;1.70;;;18.20;99.90;;;;;;5095046;28;20052;-61
2023/05/11 11:48:19;;;;;;;2.15;1.60;;;18.30;99.90;;;;;;5079001;28;20101;-61
2023/05/11 11:50:46;;;;;;;4.72;1.73;;;18.40;99.90;;;;;;5095689;28;20290;-59
2023/05/11 11:53:43;;;;;;;2.55;1.55;;;18.40;99.90;;;;;;5114584;28;20047;-60
2023/05/11 11:56:12;;;;;;;1.90;1.42;;;18.40;99.90;;;;;;5078493;28;20059;-62
2023/05/11 11:58:42;;;;;;;2.05;1.50;;;18.50;99.90;;;;;;5096909;28;20117;-61
2023/05/11 12:01:11;;;;;;;1.90;1.33;;;18.50;99.90;;;;;;5062184;28;20052;-61
2023/05/11 12:03:38;;;;;;;2.72;1.52;;;18.40;99.90;;;;;;5098061;28;20109;-62
2023/05/11 12:06:06;;;;;;;2.00;1.50;;;18.40;99.90;;;;;;5116672;28;20070;-61
2023/05/11 12:08:48;;;;;;;2.00;1.13;;;18.10;99.90;;;;;;5117087;28;20131;-62
2023/05/11 12:11:16;;;;;;;1.60;1.20;;;18.10;99.90;;;;;;5101453;28;20372;-61
2023/05/11 12:13:42;;;;;;;2.08;1.23;;;18.00;99.90;;;;;;5098854;28;20048;-62
2023/05/11 12:16:17;;;;;;;1.95;1.33;;;17.70;99.90;;;;;;5096491;28;20070;-63
2023/05/11 12:18:55;;;;;;;2.45;1.23;;;17.60;99.90;;;;;;5095358;28;20109;-62
2023/05/11 12:21:27;;;;;;;1.80;1.42;;;17.60;99.90;;;;;;5095092;28;20359;-62
2023/05/11 12:23:59;;;;;;;2.88;1.83;;;17.60;99.90;;;;;;5106068;28;20040;-61
2023/05/11 12:26:27;;;;;;;2.00;1.55;;;17.60;99.90;;;;;;5115127;28;20126;-62
2023/05/11 12:29:13;;;;;;;2.30;1.63;;;17.60;99.90;;;;;;5097908;28;20048;-62
2023/05/11 12:31:41;;;;;;;2.40;1.70;;;17.50;99.90;;;;;;5095041;28;20063;-63
2023/05/11 12:34:17;;;;;;;2.85;1.58;;;17.60;99.90;;;;;;5095730;28;20097;-62
2023/05/11 12:36:45;;;;;;;2.20;1.63;;;17.60;99.90;;;;;;5096166;28;20125;-62
2023/05/11 12:39:22;;;;;;;3.45;1.65;;;17.60;99.90;;;;;;5096152;28;20048;-62
2023/05/11 12:41:50;;;;;;;2.60;1.50;;;17.70;99.90;;;;;;5078197;28;20052;-61
2023/05/11 12:44:17;;;;;;;2.20;1.63;;;17.60;99.90;;;;;;5095322;28;20496;-59
2023/05/11 12:46:45;;;;;;;2.47;1.70;;;17.60;99.90;;;;;;5095819;28;20059;-63
2023/05/11 12:49:19;;;;;;;2.67;2.08;;;17.60;99.90;;;;;;5095957;28;20064;-62